Terminal Aerodrome Forecast
Issued by NWS Charleston, WV

Current Version | Previous Version | Text Only | Print | Product List | Glossary Off
Versions: 1 2 3 4 5 6 7 8 9 10 11 12 13 14 15 16 17 18 19 20 21 22 23 24 25

291
FTUS41 KRLX 221512 AAA
TAFCRW
TAF AMD
KCRW 221512Z 2215/2312 20003KT P6SM FEW001 BKN100
     FM221700 22004KT P6SM VCTS SCT035CB BKN080
     FM222200 23005KT P6SM SCT040
     FM230100 17003KT P6SM BKN250
     FM230800 00000KT P6SM BKN025=

USA.gov is the U.S. government's official web portal to all federal, state and local government web resources and services.